sensor_id;sensor_type;location;lat;lon;timestamp;P1;durP1;ratioP1;P2;durP2;ratioP2
61638;SDS011;47544;52.484;4.658;2022-09-09T00:00:00;7.97;;;4.72;;
61638;SDS011;47544;52.484;4.658;2022-09-09T00:00:12;8.65;;;4.88;;
61638;SDS011;47544;52.484;4.658;2022-09-09T00:00:23;7.82;;;4.78;;
61638;SDS011;47544;52.484;4.658;2022-09-09T00:00:35;7.10;;;4.88;;
61638;SDS011;47544;52.484;4.658;2022-09-09T00:00:49;7.53;;;4.75;;
61638;SDS011;47544;52.484;4.658;2022-09-09T00:01:06;8.02;;;4.78;;
61638;SDS011;47544;52.484;4.658;2022-09-09T00:01:25;9.18;;;5.30;;
61638;SDS011;47544;52.484;4.658;2022-09-09T00:01:46;7.43;;;4.55;;
61638;SDS011;47544;52.484;4.658;2022-09-09T00:02:02;9.02;;;4.63;;
61638;SDS011;47544;52.484;4.658;2022-09-09T00:02:17;9.30;;;4.63;;
61638;SDS011;47544;52.484;4.658;2022-09-09T00:02:30;7.72;;;4.40;;
61638;SDS011;47544;52.484;4.658;2022-09-09T00:02:41;7.03;;;4.47;;
61638;SDS011;47544;52.484;4.658;2022-09-09T00:02:55;6.50;;;4.40;;
61638;SDS011;47544;52.484;4.658;2022-09-09T00:03:10;6.95;;;4.30;;
61638;SDS011;47544;52.484;4.658;2022-09-09T00:03:24;7.43;;;4.60;;
61638;SDS011;47544;52.484;4.658;2022-09-09T00:03:40;7.43;;;4.75;;
61638;SDS011;47544;52.484;4.658;2022-09-09T00:03:57;8.35;;;4.80;;
61638;SDS011;47544;52.484;4.658;2022-09-09T00:04:12;8.07;;;4.72;;
61638;SDS011;47544;52.484;4.658;2022-09-09T00:04:27;7.60;;;4.90;;
61638;SDS011;47544;52.484;4.658;2022-09-09T00:04:38;7.82;;;4.97;;
61638;SDS011;47544;52.484;4.658;2022-09-09T00:04:54;8.07;;;4.82;;
61638;SDS011;47544;52.484;4.658;2022-09-09T00:05:12;7.65;;;4.70;;
61638;SDS011;47544;52.484;4.658;2022-09-09T00:05:27;8.38;;;4.80;;
61638;SDS011;47544;52.484;4.658;2022-09-09T00:05:41;9.27;;;4.80;;
61638;SDS011;47544;52.484;4.658;2022-09-09T00:05:57;8.93;;;4.85;;
61638;SDS011;47544;52.484;4.658;2022-09-09T00:06:11;7.40;;;4.70;;
61638;SDS011;47544;52.484;4.658;2022-09-09T00:06:27;7.25;;;4.60;;
61638;SDS011;47544;52.484;4.658;2022-09-09T00:06:43;7.50;;;4.70;;
61638;SDS011;47544;52.484;4.658;2022-09-09T00:06:57;7.28;;;4.82;;
61638;SDS011;47544;52.484;4.658;2022-09-09T00:07:13;7.35;;;5.05;;
61638;SDS011;47544;52.484;4.658;2022-09-09T00:07:28;7.05;;;4.93;;
61638;SDS011;47544;52.484;4.658;2022-09-09T00:07:43;7.00;;;4.68;;
61638;SDS011;47544;52.484;4.658;2022-09-09T00:07:58;6.82;;;4.80;;
61638;SDS011;47544;52.484;4.658;2022-09-09T00:08:14;6.40;;;4.88;;
61638;SDS011;47544;52.484;4.658;2022-09-09T00:08:32;6.82;;;4.82;;
61638;SDS011;47544;52.484;4.658;2022-09-09T00:08:48;7.40;;;4.55;;
61638;SDS011;47544;52.484;4.658;2022-09-09T00:09:04;8.55;;;4.78;;
61638;SDS011;47544;52.484;4.658;2022-09-09T00:09:18;9.30;;;5.20;;
61638;SDS011;47544;52.484;4.658;2022-09-09T00:09:31;9.27;;;5.13;;
61638;SDS011;47544;52.484;4.658;2022-09-09T00:09:44;8.77;;;4.95;;
61638;SDS011;47544;52.484;4.658;2022-09-09T00:10:00;8.18;;;5.00;;
61638;SDS011;47544;52.484;4.658;2022-09-09T00:10:18;8.43;;;5.10;;
61638;SDS011;47544;52.484;4.658;2022-09-09T00:10:33;9.20;;;4.97;;
61638;SDS011;47544;52.484;4.658;2022-09-09T00:10:44;9.13;;;5.20;;
61638;SDS011;47544;52.484;4.658;2022-09-09T00:10:59;8.43;;;5.20;;
61638;SDS011;47544;52.484;4.658;2022-09-09T00:11:12;8.37;;;5.20;;
61638;SDS011;47544;52.484;4.658;2022-09-09T00:11:30;8.93;;;5.40;;
61638;SDS011;47544;52.484;4.658;2022-09-09T00:11:46;9.90;;;5.53;;
61638;SDS011;47544;52.484;4.658;2022-09-09T00:12:00;10.13;;;5.43;;
61638;SDS011;47544;52.484;4.658;2022-09-09T00:12:14;9.38;;;5.40;;
61638;SDS011;47544;52.484;4.658;2022-09-09T00:12:27;9.23;;;5.40;;
61638;SDS011;47544;52.484;4.658;2022-09-09T00:12:42;8.65;;;5.30;;
61638;SDS011;47544;52.484;4.658;2022-09-09T00:13:01;7.63;;;5.60;;
61638;SDS011;47544;52.484;4.658;2022-09-09T00:13:15;7.80;;;5.57;;
61638;SDS011;47544;52.484;4.658;2022-09-09T00:13:30;7.88;;;5.40;;
61638;SDS011;47544;52.484;4.658;2022-09-09T00:13:43;7.95;;;5.43;;
61638;SDS011;47544;52.484;4.658;2022-09-09T00:13:56;7.97;;;5.43;;
61638;SDS011;47544;52.484;4.658;2022-09-09T00:14:13;8.10;;;5.30;;
61638;SDS011;47544;52.484;4.658;2022-09-09T00:14:31;9.32;;;5.47;;
61638;SDS011;47544;52.484;4.658;2022-09-09T00:14:47;9.20;;;5.55;;
61638;SDS011;47544;52.484;4.658;2022-09-09T00:15:02;8.85;;;5.38;;
61638;SDS011;47544;52.484;4.658;2022-09-09T00:15:16;9.57;;;5.50;;
61638;SDS011;47544;52.484;4.658;2022-09-09T00:15:30;8.63;;;5.80;;
61638;SDS011;47544;52.484;4.658;2022-09-09T00:15:46;8.48;;;5.63;;
61638;SDS011;47544;52.484;4.658;2022-09-09T00:16:00;8.50;;;5.38;;
61638;SDS011;47544;52.484;4.658;2022-09-09T00:16:14;7.95;;;5.68;;
61638;SDS011;47544;52.484;4.658;2022-09-09T00:16:30;8.30;;;6.03;;
61638;SDS011;47544;52.484;4.658;2022-09-09T00:16:43;8.27;;;5.90;;
61638;SDS011;47544;52.484;4.658;2022-09-09T00:17:01;8.10;;;5.57;;
61638;SDS011;47544;52.484;4.658;2022-09-09T00:17:14;9.15;;;5.63;;
61638;SDS011;47544;52.484;4.658;2022-09-09T00:17:32;9.18;;;5.90;;
61638;SDS011;47544;52.484;4.658;2022-09-09T00:17:46;8.40;;;5.90;;
61638;SDS011;47544;52.484;4.658;2022-09-09T00:18:00;8.75;;;6.10;;
61638;SDS011;47544;52.484;4.658;2022-09-09T00:18:16;9.50;;;6.10;;
61638;SDS011;47544;52.484;4.658;2022-09-09T00:18:32;9.32;;;5.78;;
61638;SDS011;47544;52.484;4.658;2022-09-09T00:18:49;8.65;;;5.70;;
61638;SDS011;47544;52.484;4.658;2022-09-09T00:19:12;8.48;;;5.68;;
61638;SDS011;47544;52.484;4.658;2022-09-09T00:19:28;8.52;;;5.63;;
61638;SDS011;47544;52.484;4.658;2022-09-09T00:19:44;9.05;;;5.80;;
61638;SDS011;47544;52.484;4.658;2022-09-09T00:20:00;8.20;;;5.75;;
61638;SDS011;47544;52.484;4.658;2022-09-09T00:20:14;8.55;;;5.97;;
61638;SDS011;47544;52.484;4.658;2022-09-09T00:20:28;8.02;;;5.95;;
61638;SDS011;47544;52.484;4.658;2022-09-09T00:20:42;8.45;;;6.00;;
61638;SDS011;47544;52.484;4.658;2022-09-09T00:20:58;9.55;;;6.28;;
61638;SDS011;47544;52.484;4.658;2022-09-09T00:21:11;9.70;;;6.20;;
61638;SDS011;47544;52.484;4.658;2022-09-09T00:21:28;9.13;;;6.05;;
61638;SDS011;47544;52.484;4.658;2022-09-09T00:21:43;8.85;;;5.97;;
61638;SDS011;47544;52.484;4.658;2022-09-09T00:22:01;9.75;;;6.20;;
61638;SDS011;47544;52.484;4.658;2022-09-09T00:22:15;10.23;;;6.45;;
61638;SDS011;47544;52.484;4.658;2022-09-09T00:22:27;9.40;;;6.35;;
61638;SDS011;47544;52.484;4.658;2022-09-09T00:22:40;8.18;;;5.93;;
61638;SDS011;47544;52.484;4.658;2022-09-09T00:22:57;8.52;;;6.00;;
61638;SDS011;47544;52.484;4.658;2022-09-09T00:23:14;9.48;;;6.13;;
61638;SDS011;47544;52.484;4.658;2022-09-09T00:23:30;10.40;;;6.20;;
61638;SDS011;47544;52.484;4.658;2022-09-09T00:23:44;10.13;;;6.10;;
61638;SDS011;47544;52.484;4.658;2022-09-09T00:23:56;10.70;;;6.10;;
61638;SDS011;47544;52.484;4.658;2022-09-09T00:24:10;9.18;;;5.97;;
61638;SDS011;47544;52.484;4.658;2022-09-09T00:24:24;7.65;;;5.72;;
61638;SDS011;47544;52.484;4.658;2022-09-09T00:24:38;8.25;;;5.72;;
61638;SDS011;47544;52.484;4.658;2022-09-09T00:24:51;8.90;;;5.90;;
61638;SDS011;47544;52.484;4.658;2022-09-09T00:25:08;9.45;;;6.07;;
61638;SDS011;47544;52.484;4.658;2022-09-09T00:25:22;9.85;;;6.10;;
61638;SDS011;47544;52.484;4.658;2022-09-09T00:25:37;9.38;;;5.90;;
61638;SDS011;47544;52.484;4.658;2022-09-09T00:25:54;8.32;;;5.93;;
61638;SDS011;47544;52.484;4.658;2022-09-09T00:26:08;8.73;;;6.22;;
61638;SDS011;47544;52.484;4.658;2022-09-09T00:26:20;9.45;;;6.20;;
61638;SDS011;47544;52.484;4.658;2022-09-09T00:26:38;9.07;;;5.88;;
61638;SDS011;47544;52.484;4.658;2022-09-09T00:26:51;8.48;;;5.80;;
61638;SDS011;47544;52.484;4.658;2022-09-09T00:27:04;8.48;;;5.90;;
61638;SDS011;47544;52.484;4.658;2022-09-09T00:27:19;8.52;;;6.05;;
61638;SDS011;47544;52.484;4.658;2022-09-09T00:27:34;9.32;;;6.03;;
61638;SDS011;47544;52.484;4.658;2022-09-09T00:27:48;9.23;;;5.88;;
61638;SDS011;47544;52.484;4.658;2022-09-09T00:28:00;9.10;;;6.03;;
61638;SDS011;47544;52.484;4.658;2022-09-09T00:28:13;9.35;;;6.20;;
61638;SDS011;47544;52.484;4.658;2022-09-09T00:28:26;10.57;;;6.10;;
61638;SDS011;47544;52.484;4.658;2022-09-09T00:28:39;10.93;;;6.10;;
61638;SDS011;47544;52.484;4.658;2022-09-09T00:28:52;9.80;;;6.05;;
61638;SDS011;47544;52.484;4.658;2022-09-09T00:29:05;8.07;;;6.03;;
61638;SDS011;47544;52.484;4.658;2022-09-09T00:29:22;8.50;;;6.13;;
61638;SDS011;47544;52.484;4.658;2022-09-09T00:29:37;9.55;;;5.82;;
61638;SDS011;47544;52.484;4.658;2022-09-09T00:29:56;9.57;;;5.78;;
61638;SDS011;47544;52.484;4.658;2022-09-09T00:30:14;10.25;;;6.00;;
61638;SDS011;47544;52.484;4.658;2022-09-09T00:30:31;10.32;;;5.80;;
61638;SDS011;47544;52.484;4.658;2022-09-09T00:30:44;9.80;;;5.78;;
61638;SDS011;47544;52.484;4.658;2022-09-09T00:30:59;8.90;;;5.68;;
61638;SDS011;47544;52.484;4.658;2022-09-09T00:31:13;8.98;;;6.05;;
61638;SDS011;47544;52.484;4.658;2022-09-09T00:31:26;8.52;;;5.93;;
61638;SDS011;47544;52.484;4.658;2022-09-09T00:31:38;9.63;;;6.10;;
61638;SDS011;47544;52.484;4.658;2022-09-09T00:31:49;9.10;;;5.85;;
61638;SDS011;47544;52.484;4.658;2022-09-09T00:32:08;8.75;;;5.75;;
61638;SDS011;47544;52.484;4.658;2022-09-09T00:32:21;9.25;;;5.60;;
61638;SDS011;47544;52.484;4.658;2022-09-09T00:32:32;9.63;;;5.60;;
61638;SDS011;47544;52.484;4.658;2022-09-09T00:32:46;9.23;;;5.97;;
61638;SDS011;47544;52.484;4.658;2022-09-09T00:32:58;9.73;;;6.00;;
61638;SDS011;47544;52.484;4.658;2022-09-09T00:33:11;9.73;;;6.00;;
61638;SDS011;47544;52.484;4.658;2022-09-09T00:33:22;9.05;;;5.95;;
61638;SDS011;47544;52.484;4.658;2022-09-09T00:33:34;8.52;;;5.80;;
61638;SDS011;47544;52.484;4.658;2022-09-09T00:33:54;8.35;;;5.32;;
61638;SDS011;47544;52.484;4.658;2022-09-09T00:34:09;7.93;;;5.40;;
61638;SDS011;47544;52.484;4.658;2022-09-09T00:34:23;8.50;;;5.65;;
61638;SDS011;47544;52.484;4.658;2022-09-09T00:34:39;9.23;;;5.88;;
61638;SDS011;47544;52.484;4.658;2022-09-09T00:34:55;10.40;;;5.80;;
61638;SDS011;47544;52.484;4.658;2022-09-09T00:35:12;9.45;;;5.53;;
61638;SDS011;47544;52.484;4.658;2022-09-09T00:35:27;7.97;;;5.82;;
61638;SDS011;47544;52.484;4.658;2022-09-09T00:35:41;8.13;;;5.78;;
61638;SDS011;47544;52.484;4.658;2022-09-09T00:35:56;7.88;;;5.55;;
61638;SDS011;47544;52.484;4.658;2022-09-09T00:36:09;8.00;;;5.32;;
61638;SDS011;47544;52.484;4.658;2022-09-09T00:36:23;9.85;;;5.35;;
61638;SDS011;47544;52.484;4.658;2022-09-09T00:36:35;10.15;;;5.65;;
61638;SDS011;47544;52.484;4.658;2022-09-09T00:36:47;11.00;;;6.07;;
61638;SDS011;47544;52.484;4.658;2022-09-09T00:37:00;10.88;;;6.15;;
61638;SDS011;47544;52.484;4.658;2022-09-09T00:37:13;10.88;;;6.25;;
61638;SDS011;47544;52.484;4.658;2022-09-09T00:37:24;9.73;;;6.03;;
61638;SDS011;47544;52.484;4.658;2022-09-09T00:37:36;9.45;;;5.75;;
61638;SDS011;47544;52.484;4.658;2022-09-09T00:37:51;8.73;;;5.60;;
61638;SDS011;47544;52.484;4.658;2022-09-09T00:38:05;9.00;;;5.75;;
61638;SDS011;47544;52.484;4.658;2022-09-09T00:38:21;9.45;;;5.88;;
61638;SDS011;47544;52.484;4.658;2022-09-09T00:38:36;9.00;;;5.53;;
61638;SDS011;47544;52.484;4.658;2022-09-09T00:38:49;7.85;;;5.10;;
61638;SDS011;47544;52.484;4.658;2022-09-09T00:39:02;7.38;;;5.10;;
61638;SDS011;47544;52.484;4.658;2022-09-09T00:39:15;7.57;;;5.55;;
61638;SDS011;47544;52.484;4.658;2022-09-09T00:39:31;8.20;;;5.82;;
61638;SDS011;47544;52.484;4.658;2022-09-09T00:39:44;8.40;;;5.65;;
61638;SDS011;47544;52.484;4.658;2022-09-09T00:39:57;7.57;;;5.57;;
61638;SDS011;47544;52.484;4.658;2022-09-09T00:40:17;7.75;;;5.85;;
61638;SDS011;47544;52.484;4.658;2022-09-09T00:40:34;7.68;;;5.80;;
61638;SDS011;47544;52.484;4.658;2022-09-09T00:40:48;8.18;;;5.53;;
61638;SDS011;47544;52.484;4.658;2022-09-09T00:41:02;8.73;;;5.82;;
61638;SDS011;47544;52.484;4.658;2022-09-09T00:41:18;8.57;;;5.70;;
61638;SDS011;47544;52.484;4.658;2022-09-09T00:41:31;8.90;;;5.55;;
61638;SDS011;47544;52.484;4.658;2022-09-09T00:41:51;8.57;;;5.68;;
61638;SDS011;47544;52.484;4.658;2022-09-09T00:42:13;7.53;;;5.85;;
61638;SDS011;47544;52.484;4.658;2022-09-09T00:42:25;8.50;;;5.97;;
61638;SDS011;47544;52.484;4.658;2022-09-09T00:42:37;8.95;;;6.10;;
61638;SDS011;47544;52.484;4.658;2022-09-09T00:42:53;8.75;;;5.88;;
61638;SDS011;47544;52.484;4.658;2022-09-09T00:43:18;8.73;;;5.82;;
61638;SDS011;47544;52.484;4.658;2022-09-09T00:43:32;9.00;;;5.95;;
61638;SDS011;47544;52.484;4.658;2022-09-09T00:43:46;9.57;;;6.15;;
61638;SDS011;47544;52.484;4.658;2022-09-09T00:44:00;8.23;;;5.72;;
61638;SDS011;47544;52.484;4.658;2022-09-09T00:44:15;8.18;;;5.70;;
61638;SDS011;47544;52.484;4.658;2022-09-09T00:44:32;8.68;;;5.88;;
61638;SDS011;47544;52.484;4.658;2022-09-09T00:44:53;7.50;;;5.78;;
61638;SDS011;47544;52.484;4.658;2022-09-09T00:45:09;10.23;;;5.97;;
61638;SDS011;47544;52.484;4.658;2022-09-09T00:45:35;9.50;;;5.85;;
61638;SDS011;47544;52.484;4.658;2022-09-09T00:46:25;9.18;;;5.85;;
61638;SDS011;47544;52.484;4.658;2022-09-09T00:46:41;9.32;;;6.28;;
61638;SDS011;47544;52.484;4.658;2022-09-09T00:47:06;8.68;;;6.13;;
61638;SDS011;47544;52.484;4.658;2022-09-09T00:47:26;9.40;;;6.30;;
61638;SDS011;47544;52.484;4.658;2022-09-09T00:47:43;11.10;;;6.68;;
61638;SDS011;47544;52.484;4.658;2022-09-09T00:47:56;11.60;;;6.70;;
61638;SDS011;47544;52.484;4.658;2022-09-09T00:48:08;10.77;;;6.53;;
61638;SDS011;47544;52.484;4.658;2022-09-09T00:48:21;10.82;;;6.70;;
61638;SDS011;47544;52.484;4.658;2022-09-09T00:48:36;10.13;;;6.72;;
61638;SDS011;47544;52.484;4.658;2022-09-09T00:48:52;9.70;;;6.85;;
61638;SDS011;47544;52.484;4.658;2022-09-09T00:49:09;9.10;;;6.55;;
61638;SDS011;47544;52.484;4.658;2022-09-09T00:49:28;8.00;;;6.28;;
61638;SDS011;47544;52.484;4.658;2022-09-09T00:49:46;8.98;;;6.43;;
61638;SDS011;47544;52.484;4.658;2022-09-09T00:50:03;8.77;;;6.30;;
61638;SDS011;47544;52.484;4.658;2022-09-09T00:50:27;9.40;;;6.53;;
61638;SDS011;47544;52.484;4.658;2022-09-09T00:50:43;10.23;;;6.90;;
61638;SDS011;47544;52.484;4.658;2022-09-09T00:50:57;10.50;;;6.85;;
61638;SDS011;47544;52.484;4.658;2022-09-09T00:51:13;11.13;;;7.07;;
61638;SDS011;47544;52.484;4.658;2022-09-09T00:51:29;11.25;;;7.28;;
61638;SDS011;47544;52.484;4.658;2022-09-09T00:51:44;10.25;;;6.97;;
61638;SDS011;47544;52.484;4.658;2022-09-09T00:51:59;9.18;;;6.60;;
61638;SDS011;47544;52.484;4.658;2022-09-09T00:52:17;9.45;;;6.47;;
61638;SDS011;47544;52.484;4.658;2022-09-09T00:52:32;10.95;;;6.90;;
61638;SDS011;47544;52.484;4.658;2022-09-09T00:52:47;11.57;;;7.30;;
61638;SDS011;47544;52.484;4.658;2022-09-09T00:53:06;10.98;;;7.53;;
61638;SDS011;47544;52.484;4.658;2022-09-09T00:53:22;10.73;;;7.50;;
61638;SDS011;47544;52.484;4.658;2022-09-09T00:53:36;10.23;;;7.18;;
61638;SDS011;47544;52.484;4.658;2022-09-09T00:53:57;9.75;;;7.07;;
61638;SDS011;47544;52.484;4.658;2022-09-09T00:54:44;10.23;;;6.95;;
61638;SDS011;47544;52.484;4.658;2022-09-09T00:55:01;10.23;;;7.20;;
61638;SDS011;47544;52.484;4.658;2022-09-09T00:55:14;9.88;;;6.97;;
61638;SDS011;47544;52.484;4.658;2022-09-09T00:55:28;11.65;;;6.90;;
61638;SDS011;47544;52.484;4.658;2022-09-09T00:55:47;10.57;;;7.00;;
61638;SDS011;47544;52.484;4.658;2022-09-09T00:56:03;10.57;;;7.18;;
61638;SDS011;47544;52.484;4.658;2022-09-09T00:56:25;10.15;;;6.82;;
61638;SDS011;47544;52.484;4.658;2022-09-09T00:56:41;10.23;;;6.78;;
61638;SDS011;47544;52.484;4.658;2022-09-09T00:57:02;10.05;;;6.90;;
61638;SDS011;47544;52.484;4.658;2022-09-09T00:57:20;9.27;;;7.03;;
61638;SDS011;47544;52.484;4.658;2022-09-09T00:57:35;10.30;;;6.95;;
61638;SDS011;47544;52.484;4.658;2022-09-09T00:58:01;10.00;;;6.68;;
61638;SDS011;47544;52.484;4.658;2022-09-09T00:58:12;9.77;;;6.85;;
61638;SDS011;47544;52.484;4.658;2022-09-09T00:58:23;9.23;;;7.03;;
61638;SDS011;47544;52.484;4.658;2022-09-09T00:58:34;9.40;;;7.00;;
61638;SDS011;47544;52.484;4.658;2022-09-09T00:58:48;11.00;;;7.05;;
61638;SDS011;47544;52.484;4.658;2022-09-09T00:59:06;11.18;;;7.15;;
61638;SDS011;47544;52.484;4.658;2022-09-09T00:59:22;9.68;;;6.88;;
61638;SDS011;47544;52.484;4.658;2022-09-09T00:59:37;10.27;;;6.85;;
61638;SDS011;47544;52.484;4.658;2022-09-09T00:59:57;10.77;;;7.30;;
61638;SDS011;47544;52.484;4.658;2022-09-09T01:00:19;10.55;;;7.22;;
61638;SDS011;47544;52.484;4.658;2022-09-09T01:00:33;8.32;;;6.80;;
61638;SDS011;47544;52.484;4.658;2022-09-09T01:01:01;10.63;;;6.90;;
61638;SDS011;47544;52.484;4.658;2022-09-09T01:01:14;10.63;;;7.00;;
61638;SDS011;47544;52.484;4.658;2022-09-09T01:01:25;10.13;;;7.20;;
61638;SDS011;47544;52.484;4.658;2022-09-09T01:01:36;9.52;;;7.10;;
61638;SDS011;47544;52.484;4.658;2022-09-09T01:01:47;10.10;;;7.50;;
61638;SDS011;47544;52.484;4.658;2022-09-09T01:02:02;11.65;;;7.70;;
61638;SDS011;47544;52.484;4.658;2022-09-09T01:02:16;11.43;;;7.38;;
61638;SDS011;47544;52.484;4.658;2022-09-09T01:02:35;11.95;;;7.40;;
61638;SDS011;47544;52.484;4.658;2022-09-09T01:03:01;12.18;;;7.55;;
61638;SDS011;47544;52.484;4.658;2022-09-09T01:03:19;11.02;;;7.43;;
61638;SDS011;47544;52.484;4.658;2022-09-09T01:03:33;10.23;;;7.43;;
61638;SDS011;47544;52.484;4.658;2022-09-09T01:03:46;10.13;;;7.32;;
61638;SDS011;47544;52.484;4.658;2022-09-09T01:03:59;10.50;;;7.28;;
61638;SDS011;47544;52.484;4.658;2022-09-09T01:04:12;11.25;;;7.50;;
61638;SDS011;47544;52.484;4.658;2022-09-09T01:04:28;10.70;;;7.60;;
61638;SDS011;47544;52.484;4.658;2022-09-09T01:04:41;10.77;;;7.47;;
61638;SDS011;47544;52.484;4.658;2022-09-09T01:04:56;11.02;;;7.55;;
61638;SDS011;47544;52.484;4.658;2022-09-09T01:05:15;10.60;;;7.60;;
61638;SDS011;47544;52.484;4.658;2022-09-09T01:05:30;10.88;;;7.40;;
61638;SDS011;47544;52.484;4.658;2022-09-09T01:05:45;10.20;;;7.40;;
61638;SDS011;47544;52.484;4.658;2022-09-09T01:06:25;11.80;;;7.72;;
61638;SDS011;47544;52.484;4.658;2022-09-09T01:06:41;10.85;;;7.90;;
61638;SDS011;47544;52.484;4.658;2022-09-09T01:06:54;11.15;;;7.82;;
61638;SDS011;47544;52.484;4.658;2022-09-09T01:07:15;12.65;;;7.75;;
61638;SDS011;47544;52.484;4.658;2022-09-09T01:07:27;11.70;;;7.63;;
61638;SDS011;47544;52.484;4.658;2022-09-09T01:07:39;11.27;;;7.50;;
61638;SDS011;47544;52.484;4.658;2022-09-09T01:07:51;11.48;;;7.53;;
61638;SDS011;47544;52.484;4.658;2022-09-09T01:08:02;10.85;;;7.43;;
61638;SDS011;47544;52.484;4.658;2022-09-09T01:08:20;10.13;;;7.82;;
61638;SDS011;47544;52.484;4.658;2022-09-09T01:09:09;11.70;;;7.90;;
61638;SDS011;47544;52.484;4.658;2022-09-09T01:09:23;12.15;;;8.13;;
61638;SDS011;47544;52.484;4.658;2022-09-09T01:09:38;11.98;;;8.15;;
61638;SDS011;47544;52.484;4.658;2022-09-09T01:09:55;11.18;;;8.30;;
61638;SDS011;47544;52.484;4.658;2022-09-09T01:10:08;11.80;;;8.20;;
61638;SDS011;47544;52.484;4.658;2022-09-09T01:10:24;12.52;;;8.13;;
61638;SDS011;47544;52.484;4.658;2022-09-09T01:10:39;12.68;;;8.23;;
61638;SDS011;47544;52.484;4.658;2022-09-09T01:10:53;11.85;;;8.20;;
61638;SDS011;47544;52.484;4.658;2022-09-09T01:11:05;10.52;;;8.20;;
61638;SDS011;47544;52.484;4.658;2022-09-09T01:11:21;10.57;;;8.23;;
61638;SDS011;47544;52.484;4.658;2022-09-09T01:11:34;11.10;;;8.23;;
61638;SDS011;47544;52.484;4.658;2022-09-09T01:11:50;11.00;;;8.20;;
61638;SDS011;47544;52.484;4.658;2022-09-09T01:12:07;11.25;;;8.25;;
61638;SDS011;47544;52.484;4.658;2022-09-09T01:12:24;12.10;;;8.35;;
61638;SDS011;47544;52.484;4.658;2022-09-09T01:12:38;12.05;;;8.38;;
61638;SDS011;47544;52.484;4.658;2022-09-09T01:12:51;11.75;;;8.63;;
61638;SDS011;47544;52.484;4.658;2022-09-09T01:13:04;11.50;;;8.68;;
61638;SDS011;47544;52.484;4.658;2022-09-09T01:13:22;11.65;;;8.57;;
61638;SDS011;47544;52.484;4.658;2022-09-09T01:13:34;11.27;;;8.73;;
61638;SDS011;47544;52.484;4.658;2022-09-09T01:13:46;11.85;;;8.75;;
61638;SDS011;47544;52.484;4.658;2022-09-09T01:13:59;11.43;;;8.23;;
61638;SDS011;47544;52.484;4.658;2022-09-09T01:14:14;11.40;;;8.40;;
61638;SDS011;47544;52.484;4.658;2022-09-09T01:14:35;13.68;;;8.57;;
61638;SDS011;47544;52.484;4.658;2022-09-09T01:14:49;12.75;;;8.35;;
61638;SDS011;47544;52.484;4.658;2022-09-09T01:15:04;11.07;;;8.65;;
61638;SDS011;47544;52.484;4.658;2022-09-09T01:15:20;11.57;;;8.63;;
61638;SDS011;47544;52.484;4.658;2022-09-09T01:15:32;11.48;;;8.82;;
61638;SDS011;47544;52.484;4.658;2022-09-09T01:15:46;11.32;;;8.75;;
61638;SDS011;47544;52.484;4.658;2022-09-09T01:15:59;12.32;;;8.77;;
61638;SDS011;47544;52.484;4.658;2022-09-09T01:16:15;12.02;;;8.75;;
61638;SDS011;47544;52.484;4.658;2022-09-09T01:16:27;11.25;;;8.77;;
61638;SDS011;47544;52.484;4.658;2022-09-09T01:16:39;11.07;;;8.63;;
61638;SDS011;47544;52.484;4.658;2022-09-09T01:16:52;12.27;;;8.80;;
61638;SDS011;47544;52.484;4.658;2022-09-09T01:17:07;11.88;;;8.70;;
61638;SDS011;47544;52.484;4.658;2022-09-09T01:17:22;11.20;;;8.55;;
61638;SDS011;47544;52.484;4.658;2022-09-09T01:17:36;11.18;;;8.70;;
61638;SDS011;47544;52.484;4.658;2022-09-09T01:17:50;10.00;;;8.60;;
61638;SDS011;47544;52.484;4.658;2022-09-09T01:18:04;10.20;;;8.82;;
61638;SDS011;47544;52.484;4.658;2022-09-09T01:18:17;11.63;;;9.20;;
61638;SDS011;47544;52.484;4.658;2022-09-09T01:18:31;12.03;;;9.00;;
61638;SDS011;47544;52.484;4.658;2022-09-09T01:18:45;11.88;;;8.73;;
61638;SDS011;47544;52.484;4.658;2022-09-09T01:18:58;12.77;;;8.95;;
61638;SDS011;47544;52.484;4.658;2022-09-09T01:19:10;12.57;;;9.07;;
61638;SDS011;47544;52.484;4.658;2022-09-09T01:19:33;11.85;;;8.98;;
61638;SDS011;47544;52.484;4.658;2022-09-09T01:19:52;11.90;;;8.75;;
61638;SDS011;47544;52.484;4.658;2022-09-09T01:20:10;11.35;;;8.93;;
61638;SDS011;47544;52.484;4.658;2022-09-09T01:20:24;12.18;;;8.68;;
61638;SDS011;47544;52.484;4.658;2022-09-09T01:20:37;12.63;;;8.73;;
61638;SDS011;47544;52.484;4.658;2022-09-09T01:20:53;13.43;;;9.18;;
61638;SDS011;47544;52.484;4.658;2022-09-09T01:21:16;13.57;;;9.20;;
61638;SDS011;47544;52.484;4.658;2022-09-09T01:21:32;12.15;;;9.20;;
61638;SDS011;47544;52.484;4.658;2022-09-09T01:21:47;11.63;;;8.88;;
61638;SDS011;47544;52.484;4.658;2022-09-09T01:22:01;12.15;;;8.93;;
61638;SDS011;47544;52.484;4.658;2022-09-09T01:22:18;12.25;;;9.07;;
61638;SDS011;47544;52.484;4.658;2022-09-09T01:22:34;11.52;;;9.25;;
61638;SDS011;47544;52.484;4.658;2022-09-09T01:22:50;11.70;;;9.18;;
61638;SDS011;47544;52.484;4.658;2022-09-09T01:23:12;12.98;;;9.23;;
61638;SDS011;47544;52.484;4.658;2022-09-09T01:23:28;12.18;;;9.73;;
61638;SDS011;47544;52.484;4.658;2022-09-09T01:23:49;11.38;;;9.63;;
61638;SDS011;47544;52.484;4.658;2022-09-09T01:24:36;12.52;;;9.35;;
61638;SDS011;47544;52.484;4.658;2022-09-09T01:25:01;11.32;;;9.10;;
61638;SDS011;47544;52.484;4.658;2022-09-09T01:25:20;11.32;;;9.38;;
61638;SDS011;47544;52.484;4.658;2022-09-09T01:26:14;12.88;;;9.05;;
61638;SDS011;47544;52.484;4.658;2022-09-09T01:26:29;12.85;;;9.52;;
61638;SDS011;47544;52.484;4.658;2022-09-09T01:26:44;12.52;;;9.48;;
61638;SDS011;47544;52.484;4.658;2022-09-09T01:26:58;12.68;;;9.65;;
61638;SDS011;47544;52.484;4.658;2022-09-09T01:27:11;13.57;;;10.23;;
61638;SDS011;47544;52.484;4.658;2022-09-09T01:27:23;14.30;;;10.02;;
61638;SDS011;47544;52.484;4.658;2022-09-09T01:27:34;14.00;;;9.98;;
61638;SDS011;47544;52.484;4.658;2022-09-09T01:27:45;13.15;;;9.63;;
61638;SDS011;47544;52.484;4.658;2022-09-09T01:27:58;12.02;;;9.07;;
61638;SDS011;47544;52.484;4.658;2022-09-09T01:28:13;12.88;;;9.05;;
61638;SDS011;47544;52.484;4.658;2022-09-09T01:28:27;13.88;;;9.65;;
61638;SDS011;47544;52.484;4.658;2022-09-09T01:28:39;13.35;;;9.82;;
61638;SDS011;47544;52.484;4.658;2022-09-09T01:28:51;12.45;;;9.80;;
61638;SDS011;47544;52.484;4.658;2022-09-09T01:29:04;12.43;;;9.65;;
61638;SDS011;47544;52.484;4.658;2022-09-09T01:29:17;12.48;;;9.60;;
61638;SDS011;47544;52.484;4.658;2022-09-09T01:29:30;12.98;;;9.65;;
61638;SDS011;47544;52.484;4.658;2022-09-09T01:29:42;12.30;;;9.60;;
61638;SDS011;47544;52.484;4.658;2022-09-09T01:29:53;12.13;;;9.48;;
61638;SDS011;47544;52.484;4.658;2022-09-09T01:30:04;12.35;;;9.80;;
61638;SDS011;47544;52.484;4.658;2022-09-09T01:30:18;12.38;;;9.77;;
61638;SDS011;47544;52.484;4.658;2022-09-09T01:30:29;11.85;;;9.90;;
61638;SDS011;47544;52.484;4.658;2022-09-09T01:30:41;11.88;;;9.82;;
61638;SDS011;47544;52.484;4.658;2022-09-09T01:30:52;14.38;;;10.13;;
61638;SDS011;47544;52.484;4.658;2022-09-09T01:31:04;15.27;;;10.00;;
61638;SDS011;47544;52.484;4.658;2022-09-09T01:31:18;15.38;;;10.23;;
61638;SDS011;47544;52.484;4.658;2022-09-09T01:31:34;14.20;;;10.32;;
61638;SDS011;47544;52.484;4.658;2022-09-09T01:31:52;13.55;;;10.55;;
61638;SDS011;47544;52.484;4.658;2022-09-09T01:32:39;13.02;;;9.98;;
61638;SDS011;47544;52.484;4.658;2022-09-09T01:32:53;13.18;;;9.75;;
61638;SDS011;47544;52.484;4.658;2022-09-09T01:33:08;13.75;;;10.60;;
61638;SDS011;47544;52.484;4.658;2022-09-09T01:33:20;14.63;;;10.70;;
61638;SDS011;47544;52.484;4.658;2022-09-09T01:33:31;15.02;;;10.40;;
61638;SDS011;47544;52.484;4.658;2022-09-09T01:33:42;15.60;;;10.15;;
61638;SDS011;47544;52.484;4.658;2022-09-09T01:33:53;14.50;;;9.98;;